Baltimore, Maryland
Traffic Map
Current Weather Conditions
Baltimore, Maryland
Scattered Clouds
Scattered Clouds

Feels Like: 7°
Wind Chill: Ceiling: Unl
Heat Index: Visibility: 10mi
Dew Point: -6° Wind: 6mph
Humidity: 37% Direction: 210° (SSW)
Pressure: 29.92in Gusts: 0mph
Raw Report DataKBWI 310554Z 21005KT 10SM FEW200 SCT250 08/M06 A2992 RMK AO2 SLP131 T00831056 10122 20072 56006
Traffic Incident Summary
Active as of:
Severity:
Category:
InformationThere was an issue retrieving the traffic information for this location. Please try a different location or try again shortly.
Advertisements
Track Severe Weather on mobile